Flight Track Log - Related Links

Times and Time Zones

All times are in EDT time to prevent confusion due to time zone crossing. See the SWA3408 flight status page for this flight to view local times or setup timezone preferences in your user account.

Time Position Orientation Groundspeed Altitude Reporting Facility
EDT Latitude Longitude Course Direction KTS MPH feet Rate Location/Type
Tue 07:38:23 AM 41.7667 -87.7667 132° Southeast 129 148 2,000  Level Chicago TRACON
Tue 07:39:23 AM 41.7333 -87.7167 132° Southeast 220 253 3,000 1,950 Climbing Chicago TRACON
Tue 07:40:23 AM 41.7000 -87.6500 124° Southeast 269 310 5,900 1,364 Climbing Chicago TRACON
Tue 07:41:35 AM 41.7133 -87.5083 83° East 308 354 6,000 541 Climbing Chicago Center
Tue 07:42:36 AM 41.7261 -87.3969 81° East 306 352 7,100 2,341 Climbing Chicago Center
Tue 07:43:38 AM 41.7389 -87.2833 81° East 310 357 10,800 3,512 Climbing Chicago Center
Tue 07:44:39 AM 41.7508 -87.1622 82° East 327 376 14,300 3,268 Climbing Chicago Center
Tue 07:45:41 AM 41.7642 -87.0375 82° East 336 387 17,500 2,927 Climbing Chicago Center
Tue 07:46:42 AM 41.7642 -86.9075 90° East 345 397 20,300 2,341 Climbing Chicago Center
Tue 07:47:44 AM 41.7631 -86.7567 91° East 392 451 22,300 2,419 Climbing Chicago Center
Tue 07:48:46 AM 41.7542 -86.5975 94° East 425 489 25,300 2,976 Climbing Chicago Center
Tue 07:49:47 AM 41.7461 -86.4092 93° East 426 490 28,400 2,262 Climbing Chicago Center
Tue 07:50:48 AM 41.7397 -86.2467 93° East 432 497 29,900 1,707 Climbing Chicago Center
Tue 07:51:50 AM 41.7317 -86.0775 94° East 449 517 31,900 2,244 Climbing Chicago Center
Tue 07:52:51 AM 41.7244 -85.9119 93° East 449 517 34,500 2,049 Climbing Chicago Center
Tue 07:53:53 AM 41.7169 -85.7503 94° East 438 504 36,100 1,548 Climbing Chicago Center
Tue 07:54:55 AM 41.7100 -85.5861 93° East 441 507 37,700 1,220 Climbing Chicago Center
Tue 07:55:56 AM 41.6983 -85.4014 95° East 442 509 38,600 634 Climbing Chicago Center
Tue 07:56:58 AM 41.6922 -85.2358 93° East 468 539 39,000 194 Climbing Chicago Center
Tue 07:58:00 AM 41.6825 -85.0633 94° East 470 541 39,000  Level Chicago Center
Tue 07:58:45 AM 41.6753 -84.9289 94° East 458 527 39,000  Level Cleveland Center
Tue 07:59:45 AM 41.6669 -84.7642 94° East 453 521 39,000 100 Level Cleveland Center
Tue 08:00:45 AM 41.6561 -84.5967 95° East 448 516 39,200 550 Climbing Cleveland Center
Tue 08:01:45 AM 41.5969 -84.4403 117° Southeast 448 516 40,100 900 Climbing Cleveland Center
Tue 08:02:45 AM 41.5353 -84.2867 118° Southeast 453 521 41,000 450 Climbing Cleveland Center
Tue 08:03:45 AM 41.4611 -84.1244 121° Southeast 469 540 41,000  Level Cleveland Center
Tue 08:04:45 AM 41.3969 -83.9714 119° Southeast 469 540 41,000  Level Cleveland Center
Tue 08:05:45 AM 41.3325 -83.8214 120° Southeast 469 540 41,000  Level Cleveland Center
Tue 08:06:45 AM 41.2697 -83.6747 120° Southeast 469 540 41,000  Level Cleveland Center
Tue 08:07:45 AM 41.2069 -83.5253 119° Southeast 469 540 41,000  Level Cleveland Center
Tue 08:08:45 AM 41.1419 -83.3736 120° Southeast 469 540 41,000  Level Cleveland Center
Tue 08:09:45 AM 41.0911 -83.2392 117° Southeast 475 547 41,000  Level Cleveland Center
Tue 08:10:45 AM 41.0175 -83.0764 121° Southeast 470 541 41,000  Level Cleveland Center
Tue 08:11:45 AM 40.9519 -82.9283 120° Southeast 470 541 41,000  Level Cleveland Center
Tue 08:12:45 AM 40.8883 -82.7775 119° Southeast 475 547 41,000  Level Cleveland Center
Tue 08:14:58 AM 40.7478 -82.4531 120° Southeast 476 548 41,000  Level Indianapolis Center
Tue 08:15:33 AM 40.7036 -82.3578 121° Southeast 477 549 41,000  Level Cleveland Center
Tue 08:16:33 AM 40.6372 -82.2056 120° Southeast 477 549 41,000  Level Cleveland Center
Tue 08:17:01 AM 40.6144 -82.1519 119° Southeast 475 547 41,000  Level Indianapolis Center
Tue 08:17:33 AM 40.5764 -82.0731 122° Southeast 477 549 41,000  Level Cleveland Center
Tue 08:18:33 AM 40.5094 -81.9239 121° Southeast 477 549 41,000  Level Cleveland Center
Tue 08:19:33 AM 40.4444 -81.7725 119° Southeast 477 549 41,000  Level Cleveland Center
Tue 08:20:33 AM 40.3772 -81.6269 121° Southeast 472 543 41,000  Level Cleveland Center
Tue 08:21:33 AM 40.3075 -81.4653 119° Southeast 472 543 41,000  Level Cleveland Center
Tue 08:22:33 AM 40.2400 -81.3200 121° Southeast 472 543 41,000  Level Cleveland Center
Tue 08:23:33 AM 40.1761 -81.1728 120° Southeast 472 543 41,000 -150 Level Cleveland Center
Tue 08:24:33 AM 40.1081 -81.0283 122° Southeast 472 543 40,700 -600 Descending Cleveland Center
Tue 08:25:33 AM 40.0397 -80.8814 121° Southeast 472 543 39,800 -850 Descending Cleveland Center
Tue 08:26:33 AM 39.9733 -80.7347 121° Southeast 472 543 39,000 -400 Descending Cleveland Center
Tue 08:27:33 AM 39.9044 -80.5911 122° Southeast 472 543 39,000  Level Cleveland Center
Tue 08:28:33 AM 39.8358 -80.4453 121° Southeast 478 550 39,000  Level Cleveland Center
Tue 08:29:33 AM 39.7686 -80.3022 121° Southeast 478 550 39,000 -1,471 Level Cleveland Center
Tue 08:32:01 AM 39.6092 -79.9661 122° Southeast 478 550 33,900 -2,297 Descending Washington Center
Tue 08:33:02 AM 39.5522 -79.8147 116° Southeast 473 544 31,000 -2,628 Descending Washington Center
Tue 08:34:02 AM 39.5222 -79.6542 104° East 456 525 28,600 -2,150 Descending Washington Center
Tue 08:35:02 AM 39.4961 -79.4994 102° East 449 517 26,700 -1,488 Descending Washington Center
Tue 08:36:03 AM 39.4656 -79.3444 104° East 438 504 25,600 -1,059 Descending Washington Center
Tue 08:37:01 AM 39.4353 -79.1789 103° East 438 504 24,600 -1,169 Descending Washington Center
Tue 08:38:01 AM 39.4136 -79.0597 103° East 433 498 23,300 -1,934 Descending Washington Center
Tue 08:39:02 AM 39.3831 -78.8917 103° East 422 486 20,700 -2,361 Descending Washington Center
Tue 08:40:03 AM 39.3575 -78.7561 104° East 398 458 18,500 -2,118 Descending Washington Center
Tue 08:41:01 AM 39.3358 -78.6239 102° East 383 441 16,500 -2,085 Descending Washington Center
Tue 08:42:01 AM 39.3119 -78.4967 104° East 376 433 14,400 -2,050 Descending Washington Center
Tue 08:43:01 AM 39.2878 -78.3725 104° East 365 420 12,400 -1,587 Descending Washington Center
Tue 08:44:02 AM 39.2358 -78.2686 123° Southeast 346 398 11,200 -1,180 Descending Washington Center
Tue 08:45:03 AM 39.1839 -78.1703 124° Southeast 341 392 10,000 -595 Descending Washington Center
Tue 08:46:03 AM 39.1317 -78.0747 125° Southeast 336 387 10,000 -51 Level Washington Center
Tue 08:47:01 AM 39.0814 -77.9794 124° Southeast 329 379 9,900 -610 Descending Washington Center
Tue 08:48:01 AM 39.0333 -77.8897 125° Southeast 318 366 8,800 -1,140 Descending Washington Center
Tue 08:49:02 AM 38.9950 -77.8136 123° Southeast 294 338 7,600 -1,131 Descending Washington Center
Tue 08:50:03 AM 38.9614 -77.7167 114° Southeast 276 318 6,500 -756 Descending Washington Center
Tue 08:51:09 AM 38.9333 -77.6167 110° East 274 315 6,000 -300 Descending Potomac TRACON
Tue 08:52:03 AM 38.8667 -77.5833 159° South 269 310 5,900 -368 Descending Potomac TRACON
Tue 08:53:03 AM 38.8000 -77.5833 180° South 256 295 5,300 -950 Descending Potomac TRACON
Tue 08:54:03 AM 38.7333 -77.5667 169° South 244 281 4,000 -1,150 Descending Potomac TRACON
Tue 08:55:03 AM 38.7333 -77.4833 90° East 230 265 3,000 -496 Descending Potomac TRACON
Tue 08:56:04 AM 38.7833 -77.4667 15° North 212 244 3,000 -347 Level Potomac TRACON
Tue 08:57:04 AM 38.8333 -77.4667 360° North 183 211 2,300 -737 Descending Potomac TRACON
Tue 08:57:58 AM 38.8667 -77.4667 360° North 140 161 1,600 -737 Descending Potomac TRACON
Tue 08:58:58 AM 38.9167 -77.4667 360° North 133 153 900 -700 Descending Potomac TRACON
Tue 09:00:00 AM 38.9333 -77.4500 165° South  Level FlightAware Approximate
Tue 09:07:00 AM 38.9474 -77.4599 165° South  Level Estimated

Login

Don't have an account? Register now (free) for customized features, flight alerts, and more!